sensor_id;sensor_type;location;lat;lon;timestamp;pressure;altitude;pressure_sealevel;temperature;humidity
62708;BME280;48769;51.624;5.886;2023-02-19T00:03:52;101611.66;;;10.52;100.00
62708;BME280;48769;51.624;5.886;2023-02-19T00:06:18;101615.22;;;10.51;100.00
62708;BME280;48769;51.624;5.886;2023-02-19T00:08:43;101604.69;;;10.49;100.00
62708;BME280;48769;51.624;5.886;2023-02-19T00:11:14;101604.56;;;10.52;100.00
62708;BME280;48769;51.624;5.886;2023-02-19T00:13:40;101607.28;;;10.51;100.00
62708;BME280;48769;51.624;5.886;2023-02-19T00:16:07;101610.75;;;10.53;100.00
62708;BME280;48769;51.624;5.886;2023-02-19T00:18:32;101614.25;;;10.53;100.00
62708;BME280;48769;51.624;5.886;2023-02-19T00:20:58;101608.78;;;10.58;100.00
62708;BME280;48769;51.624;5.886;2023-02-19T00:23:23;101602.63;;;10.58;100.00
62708;BME280;48769;51.624;5.886;2023-02-19T00:25:48;101598.28;;;10.57;100.00
62708;BME280;48769;51.624;5.886;2023-02-19T00:28:14;101609.81;;;10.54;100.00
62708;BME280;48769;51.624;5.886;2023-02-19T00:30:39;101614.13;;;10.57;100.00
62708;BME280;48769;51.624;5.886;2023-02-19T00:33:04;101606.56;;;10.47;100.00
62708;BME280;48769;51.624;5.886;2023-02-19T00:35:32;101606.66;;;10.44;100.00
62708;BME280;48769;51.624;5.886;2023-02-19T00:37:57;101611.25;;;10.39;100.00
62708;BME280;48769;51.624;5.886;2023-02-19T00:40:22;101603.22;;;10.42;100.00
62708;BME280;48769;51.624;5.886;2023-02-19T00:42:52;101607.75;;;10.39;100.00
62708;BME280;48769;51.624;5.886;2023-02-19T00:45:17;101598.28;;;10.33;100.00
62708;BME280;48769;51.624;5.886;2023-02-19T00:47:43;101612.31;;;10.35;100.00
62708;BME280;48769;51.624;5.886;2023-02-19T00:50:08;101609.72;;;10.34;100.00
62708;BME280;48769;51.624;5.886;2023-02-19T00:52:33;101607.94;;;10.34;100.00
62708;BME280;48769;51.624;5.886;2023-02-19T00:54:59;101607.94;;;10.34;100.00
62708;BME280;48769;51.624;5.886;2023-02-19T00:57:25;101612.41;;;10.32;100.00
62708;BME280;48769;51.624;5.886;2023-02-19T00:59:50;101614.00;;;10.36;100.00
62708;BME280;48769;51.624;5.886;2023-02-19T01:02:15;101622.88;;;10.35;100.00
62708;BME280;48769;51.624;5.886;2023-02-19T01:04:40;101622.88;;;10.35;100.00
62708;BME280;48769;51.624;5.886;2023-02-19T01:07:05;101622.00;;;10.35;100.00
62708;BME280;48769;51.624;5.886;2023-02-19T01:09:31;101622.75;;;10.38;100.00
62708;BME280;48769;51.624;5.886;2023-02-19T01:11:56;101616.66;;;10.36;100.00
62708;BME280;48769;51.624;5.886;2023-02-19T01:14:21;101622.75;;;10.38;100.00
62708;BME280;48769;51.624;5.886;2023-02-19T01:16:46;101624.47;;;10.39;100.00
62708;BME280;48769;51.624;5.886;2023-02-19T01:19:11;101616.63;;;10.38;100.00
62708;BME280;48769;51.624;5.886;2023-02-19T01:21:38;101627.22;;;10.36;100.00
62708;BME280;48769;51.624;5.886;2023-02-19T01:24:03;101622.75;;;10.38;100.00
62708;BME280;48769;51.624;5.886;2023-02-19T01:26:29;101626.56;;;10.31;100.00
62708;BME280;48769;51.624;5.886;2023-02-19T01:28:54;101627.44;;;10.30;100.00
62708;BME280;48769;51.624;5.886;2023-02-19T01:31:21;101626.72;;;10.26;100.00
62708;BME280;48769;51.624;5.886;2023-02-19T01:33:47;101631.94;;;10.28;100.00
62708;BME280;48769;51.624;5.886;2023-02-19T01:36:13;101629.97;;;10.33;100.00
62708;BME280;48769;51.624;5.886;2023-02-19T01:38:38;101633.44;;;10.35;100.00
62708;BME280;48769;51.624;5.886;2023-02-19T01:41:04;101636.25;;;10.31;100.00
62708;BME280;48769;51.624;5.886;2023-02-19T01:43:33;101626.78;;;10.23;100.00
62708;BME280;48769;51.624;5.886;2023-02-19T01:46:00;101631.22;;;10.23;100.00
62708;BME280;48769;51.624;5.886;2023-02-19T01:50:54;101636.38;;;10.27;100.00
62708;BME280;48769;51.624;5.886;2023-02-19T01:53:22;101646.06;;;10.27;100.00
62708;BME280;48769;51.624;5.886;2023-02-19T01:55:50;101634.63;;;10.26;100.00
62708;BME280;48769;51.624;5.886;2023-02-19T01:58:17;101637.00;;;10.34;100.00
62708;BME280;48769;51.624;5.886;2023-02-19T02:00:42;101646.97;;;10.26;100.00
62708;BME280;48769;51.624;5.886;2023-02-19T02:03:07;101633.78;;;10.26;100.00
62708;BME280;48769;51.624;5.886;2023-02-19T02:05:47;101636.38;;;10.27;100.00
62708;BME280;48769;51.624;5.886;2023-02-19T02:08:14;101634.63;;;10.26;100.00
62708;BME280;48769;51.624;5.886;2023-02-19T02:11:00;101634.63;;;10.26;100.00
62708;BME280;48769;51.624;5.886;2023-02-19T02:13:26;101647.13;;;10.21;100.00
62708;BME280;48769;51.624;5.886;2023-02-19T02:16:03;101631.28;;;10.21;100.00
62708;BME280;48769;51.624;5.886;2023-02-19T02:18:40;101634.88;;;10.19;100.00
62708;BME280;48769;51.624;5.886;2023-02-19T02:21:54;101632.31;;;10.17;100.00
62708;BME280;48769;51.624;5.886;2023-02-19T02:26:56;101637.22;;;10.28;100.00
62708;BME280;48769;51.624;5.886;2023-02-19T02:32:18;101636.41;;;10.26;100.00
62708;BME280;48769;51.624;5.886;2023-02-19T02:34:47;101633.78;;;10.26;100.00
62708;BME280;48769;51.624;5.886;2023-02-19T02:37:14;101632.81;;;10.28;100.00
62708;BME280;48769;51.624;5.886;2023-02-19T02:39:40;101638.00;;;10.30;100.00
62708;BME280;48769;51.624;5.886;2023-02-19T02:42:06;101639.88;;;10.28;100.00
62708;BME280;48769;51.624;5.886;2023-02-19T02:44:50;101641.78;;;10.23;100.00
62708;BME280;48769;51.624;5.886;2023-02-19T02:47:36;101649.63;;;10.26;100.00
62708;BME280;48769;51.624;5.886;2023-02-19T02:50:05;101628.66;;;10.21;100.00
62708;BME280;48769;51.624;5.886;2023-02-19T02:52:32;101636.50;;;10.23;100.00
62708;BME280;48769;51.624;5.886;2023-02-19T02:55:20;101644.53;;;10.20;100.00
62708;BME280;48769;51.624;5.886;2023-02-19T02:57:46;101647.13;;;10.21;100.00
62708;BME280;48769;51.624;5.886;2023-02-19T03:00:12;101652.56;;;10.17;100.00
62708;BME280;48769;51.624;5.886;2023-02-19T03:02:37;101652.78;;;10.11;100.00
62708;BME280;48769;51.624;5.886;2023-02-19T03:08:04;101661.53;;;10.13;100.00
62708;BME280;48769;51.624;5.886;2023-02-19T03:13:32;101660.06;;;10.04;100.00
62708;BME280;48769;51.624;5.886;2023-02-19T03:16:17;101656.63;;;10.02;100.00
62708;BME280;48769;51.624;5.886;2023-02-19T03:19:03;101661.84;;;10.03;100.00
62708;BME280;48769;51.624;5.886;2023-02-19T03:21:46;101661.75;;;10.06;100.00
62708;BME280;48769;51.624;5.886;2023-02-19T03:24:13;101671.50;;;10.04;100.00
62708;BME280;48769;51.624;5.886;2023-02-19T03:26:58;101670.75;;;10.01;100.00
62708;BME280;48769;51.624;5.886;2023-02-19T03:29:26;101675.03;;;10.03;100.00
62708;BME280;48769;51.624;5.886;2023-02-19T03:31:57;101661.81;;;10.05;100.00
62708;BME280;48769;51.624;5.886;2023-02-19T03:34:25;101685.56;;;10.05;100.00
62708;BME280;48769;51.624;5.886;2023-02-19T03:36:54;101678.72;;;9.99;100.00
62708;BME280;48769;51.624;5.886;2023-02-19T03:39:21;101683.16;;;9.99;100.00
62708;BME280;48769;51.624;5.886;2023-02-19T03:52:19;101689.59;;;9.90;100.00
62708;BME280;48769;51.624;5.886;2023-02-19T03:57:30;101700.16;;;9.90;100.00
62708;BME280;48769;51.624;5.886;2023-02-19T04:00:09;101720.31;;;9.93;100.00
62708;BME280;48769;51.624;5.886;2023-02-19T04:02:57;101711.53;;;9.92;100.00
62708;BME280;48769;51.624;5.886;2023-02-19T04:05:25;101709.09;;;9.86;100.00
62708;BME280;48769;51.624;5.886;2023-02-19T04:07:52;101722.31;;;9.86;100.00
62708;BME280;48769;51.624;5.886;2023-02-19T04:10:18;101718.69;;;9.89;100.00
62708;BME280;48769;51.624;5.886;2023-02-19T04:12:46;101722.13;;;9.91;100.00
62708;BME280;48769;51.624;5.886;2023-02-19T04:15:13;101725.59;;;9.93;100.00
62708;BME280;48769;51.624;5.886;2023-02-19T04:17:44;101731.69;;;9.95;100.00
62708;BME280;48769;51.624;5.886;2023-02-19T04:20:11;101732.69;;;9.91;100.00
62708;BME280;48769;51.624;5.886;2023-02-19T04:22:37;101741.31;;;9.96;100.00
62708;BME280;48769;51.624;5.886;2023-02-19T04:25:04;101732.00;;;9.86;100.00
62708;BME280;48769;51.624;5.886;2023-02-19T04:27:29;101751.34;;;9.86;100.00
62708;BME280;48769;51.624;5.886;2023-02-19T04:29:54;101744.44;;;9.82;100.00
62708;BME280;48769;51.624;5.886;2023-02-19T04:32:19;101741.91;;;9.79;100.00
62708;BME280;48769;51.624;5.886;2023-02-19T04:34:44;101744.63;;;9.76;100.00
62708;BME280;48769;51.624;5.886;2023-02-19T04:37:10;101742.78;;;9.78;100.00
62708;BME280;48769;51.624;5.886;2023-02-19T04:39:35;101753.25;;;9.81;100.00
62708;BME280;48769;51.624;5.886;2023-02-19T04:42:01;101753.34;;;9.78;100.00
62708;BME280;48769;51.624;5.886;2023-02-19T04:44:26;101763.91;;;9.78;100.00
62708;BME280;48769;51.624;5.886;2023-02-19T04:46:51;101763.81;;;9.81;100.00
62708;BME280;48769;51.624;5.886;2023-02-19T04:49:16;101776.31;;;9.76;100.00
62708;BME280;48769;51.624;5.886;2023-02-19T04:51:42;101771.03;;;9.76;100.00
62708;BME280;48769;51.624;5.886;2023-02-19T04:54:07;101769.28;;;9.75;100.00
62708;BME280;48769;51.624;5.886;2023-02-19T04:56:32;101782.72;;;9.69;100.00
62708;BME280;48769;51.624;5.886;2023-02-19T04:58:58;101784.31;;;9.73;100.00
62708;BME280;48769;51.624;5.886;2023-02-19T05:01:23;101787.06;;;9.70;100.00
62708;BME280;48769;51.624;5.886;2023-02-19T05:03:49;101795.81;;;9.72;100.00
62708;BME280;48769;51.624;5.886;2023-02-19T05:06:14;101806.28;;;9.73;100.00
62708;BME280;48769;51.624;5.886;2023-02-19T05:08:40;101803.75;;;9.70;100.00
62708;BME280;48769;51.624;5.886;2023-02-19T05:11:06;101810.28;;;9.58;100.00
62708;BME280;48769;51.624;5.886;2023-02-19T05:13:32;101809.41;;;9.58;100.00
62708;BME280;48769;51.624;5.886;2023-02-19T05:15:58;101814.75;;;9.56;100.00
62708;BME280;48769;51.624;5.886;2023-02-19T05:18:24;101819.09;;;9.57;100.00
62708;BME280;48769;51.624;5.886;2023-02-19T05:20:50;101822.75;;;9.53;100.00
62708;BME280;48769;51.624;5.886;2023-02-19T05:23:15;101823.63;;;9.54;100.00
62708;BME280;48769;51.624;5.886;2023-02-19T05:25:41;101821.84;;;9.54;100.00
62708;BME280;48769;51.624;5.886;2023-02-19T05:28:06;101814.84;;;9.53;100.00
62708;BME280;48769;51.624;5.886;2023-02-19T05:30:48;101822.94;;;9.47;100.00
62708;BME280;48769;51.624;5.886;2023-02-19T05:33:13;101823.72;;;9.51;100.00
62708;BME280;48769;51.624;5.886;2023-02-19T05:35:40;101823.69;;;9.52;100.00
62708;BME280;48769;51.624;5.886;2023-02-19T05:38:05;101828.03;;;9.53;100.00
62708;BME280;48769;51.624;5.886;2023-02-19T05:40:32;101821.06;;;9.51;100.00
62708;BME280;48769;51.624;5.886;2023-02-19T05:42:57;101829.06;;;9.49;100.00
62708;BME280;48769;51.624;5.886;2023-02-19T05:45:22;101832.53;;;9.50;100.00
62708;BME280;48769;51.624;5.886;2023-02-19T05:47:47;101827.28;;;9.50;100.00
62708;BME280;48769;51.624;5.886;2023-02-19T05:50:12;101833.50;;;9.47;100.00
62708;BME280;48769;51.624;5.886;2023-02-19T05:52:38;101835.13;;;9.51;100.00
62708;BME280;48769;51.624;5.886;2023-02-19T05:55:03;101833.34;;;9.52;100.00
62708;BME280;48769;51.624;5.886;2023-02-19T05:57:28;101832.19;;;9.60;100.00
62708;BME280;48769;51.624;5.886;2023-02-19T05:59:55;101834.94;;;9.57;100.00
62708;BME280;48769;51.624;5.886;2023-02-19T06:02:20;101839.25;;;9.60;100.00
62708;BME280;48769;51.624;5.886;2023-02-19T06:04:45;101844.78;;;9.52;100.00
62708;BME280;48769;51.624;5.886;2023-02-19T06:07:10;101836.66;;;9.58;100.00
62708;BME280;48769;51.624;5.886;2023-02-19T06:09:35;101834.94;;;9.57;100.00
62708;BME280;48769;51.624;5.886;2023-02-19T06:12:01;101848.09;;;9.59;100.00
62708;BME280;48769;51.624;5.886;2023-02-19T06:14:26;101846.34;;;9.58;100.00
62708;BME280;48769;51.624;5.886;2023-02-19T06:16:51;101857.09;;;9.52;100.00
62708;BME280;48769;51.624;5.886;2023-02-19T06:19:16;101850.91;;;9.53;100.00
62708;BME280;48769;51.624;5.886;2023-02-19T06:21:42;101851.97;;;9.47;100.00
62708;BME280;48769;51.624;5.886;2023-02-19T06:24:07;101867.63;;;9.52;100.00
62708;BME280;48769;51.624;5.886;2023-02-19T06:26:33;101868.63;;;9.49;100.00
62708;BME280;48769;51.624;5.886;2023-02-19T06:28:59;101862.41;;;9.50;100.00
62708;BME280;48769;51.624;5.886;2023-02-19T06:31:24;101869.59;;;9.45;100.00
62708;BME280;48769;51.624;5.886;2023-02-19T06:33:49;101874.16;;;9.40;100.00
62708;BME280;48769;51.624;5.886;2023-02-19T06:36:16;101874.06;;;9.43;100.00
62708;BME280;48769;51.624;5.886;2023-02-19T06:38:42;101883.63;;;9.47;100.00
62708;BME280;48769;51.624;5.886;2023-02-19T06:41:08;101889.91;;;9.43;100.00
62708;BME280;48769;51.624;5.886;2023-02-19T06:43:33;101904.91;;;9.41;100.00
62708;BME280;48769;51.624;5.886;2023-02-19T06:46:02;101898.69;;;9.42;100.00
62708;BME280;48769;51.624;5.886;2023-02-19T06:48:29;101898.94;;;9.34;100.00
62708;BME280;48769;51.624;5.886;2023-02-19T06:50:54;101912.88;;;9.40;100.00
62708;BME280;48769;51.624;5.886;2023-02-19T06:53:20;101907.53;;;9.41;100.00
62708;BME280;48769;51.624;5.886;2023-02-19T06:55:55;101902.25;;;9.41;100.00
62708;BME280;48769;51.624;5.886;2023-02-19T06:58:21;101908.47;;;9.39;100.00
62708;BME280;48769;51.624;5.886;2023-02-19T07:00:46;101907.72;;;9.35;100.00
62708;BME280;48769;51.624;5.886;2023-02-19T07:03:11;101910.34;;;9.35;100.00
62708;BME280;48769;51.624;5.886;2023-02-19T07:05:36;101907.53;;;9.41;100.00
62708;BME280;48769;51.624;5.886;2023-02-19T07:08:02;101911.00;;;9.43;100.00
62708;BME280;48769;51.624;5.886;2023-02-19T07:10:27;101928.63;;;9.41;100.00
62708;BME280;48769;51.624;5.886;2023-02-19T07:12:52;101939.25;;;9.38;100.00
62708;BME280;48769;51.624;5.886;2023-02-19T07:15:17;101940.81;;;9.45;100.00
62708;BME280;48769;51.624;5.886;2023-02-19T07:17:42;101938.16;;;9.45;100.00
62708;BME280;48769;51.624;5.886;2023-02-19T07:20:08;101938.22;;;9.44;100.00
62708;BME280;48769;51.624;5.886;2023-02-19T07:22:33;101941.69;;;9.46;100.00
62708;BME280;48769;51.624;5.886;2023-02-19T07:24:58;101954.81;;;9.47;100.00
62708;BME280;48769;51.624;5.886;2023-02-19T07:27:23;101957.53;;;9.46;100.00
62708;BME280;48769;51.624;5.886;2023-02-19T07:29:49;101960.09;;;9.47;100.00
62708;BME280;48769;51.624;5.886;2023-02-19T07:32:14;101960.00;;;9.50;100.00
62708;BME280;48769;51.624;5.886;2023-02-19T07:34:39;101965.38;;;9.47;100.00
62708;BME280;48769;51.624;5.886;2023-02-19T07:37:04;101978.34;;;9.55;100.00
62708;BME280;48769;51.624;5.886;2023-02-19T07:39:29;101984.22;;;9.65;100.00
62708;BME280;48769;51.624;5.886;2023-02-19T07:41:55;101984.22;;;9.65;100.00
62708;BME280;48769;51.624;5.886;2023-02-19T07:44:21;101982.50;;;9.64;100.00
62708;BME280;48769;51.624;5.886;2023-02-19T07:46:46;101996.50;;;9.66;100.00
62708;BME280;48769;51.624;5.886;2023-02-19T07:49:11;101990.13;;;9.73;100.00
62708;BME280;48769;51.624;5.886;2023-02-19T07:51:37;101999.00;;;9.70;100.00
62708;BME280;48769;51.624;5.886;2023-02-19T07:54:03;102011.38;;;9.68;100.00
62708;BME280;48769;51.624;5.886;2023-02-19T07:56:29;102014.00;;;9.68;100.00
62708;BME280;48769;51.624;5.886;2023-02-19T07:58:54;102005.03;;;9.75;100.00
62708;BME280;48769;51.624;5.886;2023-02-19T08:01:21;102011.97;;;9.78;100.00
62708;BME280;48769;51.624;5.886;2023-02-19T08:04:05;102015.53;;;9.77;100.00
62708;BME280;48769;51.624;5.886;2023-02-19T08:06:30;102012.16;;;9.72;100.00
62708;BME280;48769;51.624;5.886;2023-02-19T08:08:56;102034.25;;;9.68;100.00
62708;BME280;48769;51.624;5.886;2023-02-19T08:11:22;102021.44;;;9.55;100.00
62708;BME280;48769;51.624;5.886;2023-02-19T08:14:06;102035.59;;;9.51;100.00
62708;BME280;48769;51.624;5.886;2023-02-19T08:16:31;102029.63;;;9.45;100.00
62708;BME280;48769;51.624;5.886;2023-02-19T08:18:56;102040.25;;;9.42;100.00
62708;BME280;48769;51.624;5.886;2023-02-19T08:21:21;102043.81;;;9.41;100.00
62708;BME280;48769;51.624;5.886;2023-02-19T08:23:47;102043.06;;;9.35;100.00
62708;BME280;48769;51.624;5.886;2023-02-19T08:26:13;102047.38;;;9.40;100.00
62708;BME280;48769;51.624;5.886;2023-02-19T08:28:39;102046.16;;;9.51;100.00
62708;BME280;48769;51.624;5.886;2023-02-19T08:31:04;102056.59;;;9.54;100.00
62708;BME280;48769;51.624;5.886;2023-02-19T08:33:30;102049.63;;;9.53;100.00
62708;BME280;48769;51.624;5.886;2023-02-19T08:35:55;102061.97;;;9.51;100.00
62708;BME280;48769;51.624;5.886;2023-02-19T08:38:21;102058.38;;;9.55;100.00
62708;BME280;48769;51.624;5.886;2023-02-19T08:40:47;102055.44;;;9.65;100.00
62708;BME280;48769;51.624;5.886;2023-02-19T08:43:13;102063.00;;;9.77;100.00
62708;BME280;48769;51.624;5.886;2023-02-19T08:45:40;102052.22;;;9.84;100.00
62708;BME280;48769;51.624;5.886;2023-02-19T08:48:06;102047.84;;;9.85;100.00
62708;BME280;48769;51.624;5.886;2023-02-19T08:50:32;102055.47;;;9.94;100.00
62708;BME280;48769;51.624;5.886;2023-02-19T08:53:00;102072.13;;;9.96;100.00
62708;BME280;48769;51.624;5.886;2023-02-19T08:55:25;102072.03;;;9.99;100.00
62708;BME280;48769;51.624;5.886;2023-02-19T08:57:51;102077.22;;;10.02;100.00
62708;BME280;48769;51.624;5.886;2023-02-19T09:00:16;102084.31;;;10.00;100.00
62708;BME280;48769;51.624;5.886;2023-02-19T09:02:41;102087.84;;;10.01;100.00
62708;BME280;48769;51.624;5.886;2023-02-19T09:05:06;102086.84;;;10.05;100.00
62708;BME280;48769;51.624;5.886;2023-02-19T09:07:32;102085.16;;;10.02;100.00
62708;BME280;48769;51.624;5.886;2023-02-19T09:09:57;102090.34;;;10.05;100.00
62708;BME280;48769;51.624;5.886;2023-02-19T09:12:23;102088.81;;;9.98;100.00
62708;BME280;48769;51.624;5.886;2023-02-19T09:14:48;102091.81;;;9.84;100.00
62708;BME280;48769;51.624;5.886;2023-02-19T09:17:13;102104.97;;;9.86;100.00
62708;BME280;48769;51.624;5.886;2023-02-19T09:19:39;102104.94;;;9.88;100.00
62708;BME280;48769;51.624;5.886;2023-02-19T09:22:04;102110.00;;;9.95;100.00
62708;BME280;48769;51.624;5.886;2023-02-19T09:24:29;102111.81;;;9.93;100.00
62708;BME280;48769;51.624;5.886;2023-02-19T09:26:55;102099.09;;;10.07;100.00
62708;BME280;48769;51.624;5.886;2023-02-19T09:29:20;102098.03;;;10.13;100.00
62708;BME280;48769;51.624;5.886;2023-02-19T09:31:46;102100.38;;;10.24;100.00
62708;BME280;48769;51.624;5.886;2023-02-19T09:34:11;102105.38;;;10.33;100.00
62708;BME280;48769;51.624;5.886;2023-02-19T09:36:37;102105.94;;;10.44;100.00
62708;BME280;48769;51.624;5.886;2023-02-19T09:39:03;102098.88;;;10.45;100.00
62708;BME280;48769;51.624;5.886;2023-02-19T09:41:31;102098.19;;;10.38;100.00
62708;BME280;48769;51.624;5.886;2023-02-19T09:43:57;102112.22;;;10.96;100.00
62708;BME280;48769;51.624;5.886;2023-02-19T09:46:37;102108.44;;;11.04;100.00
62708;BME280;48769;51.624;5.886;2023-02-19T09:49:05;102120.78;;;10.76;100.00
62708;BME280;48769;51.624;5.886;2023-02-19T09:51:33;102117.56;;;10.67;100.00
62708;BME280;48769;51.624;5.886;2023-02-19T09:54:00;102131.81;;;10.63;100.00
62708;BME280;48769;51.624;5.886;2023-02-19T09:56:28;102147.88;;;10.55;100.00
62708;BME280;48769;51.624;5.886;2023-02-19T09:58:54;102160.28;;;10.53;100.00
62708;BME280;48769;51.624;5.886;2023-02-19T10:01:20;102160.66;;;10.41;100.00
62708;BME280;48769;51.624;5.886;2023-02-19T10:03:47;102167.28;;;10.23;100.00
62708;BME280;48769;51.624;5.886;2023-02-19T10:06:15;102169.31;;;10.15;100.00
62708;BME280;48769;51.624;5.886;2023-02-19T10:08:44;102179.94;;;10.12;100.00
62708;BME280;48769;51.624;5.886;2023-02-19T10:11:10;102183.31;;;10.17;100.00
62708;BME280;48769;51.624;5.886;2023-02-19T10:13:37;102181.44;;;10.20;100.00
62708;BME280;48769;51.624;5.886;2023-02-19T10:16:05;102182.13;;;10.28;100.00
62708;BME280;48769;51.624;5.886;2023-02-19T10:18:41;102200.38;;;10.36;100.00
62708;BME280;48769;51.624;5.886;2023-02-19T10:21:09;102200.38;;;10.36;100.00
62708;BME280;48769;51.624;5.886;2023-02-19T10:23:36;102204.72;;;10.39;100.00
62708;BME280;48769;51.624;5.886;2023-02-19T10:26:03;102204.25;;;10.23;100.00
62708;BME280;48769;51.624;5.886;2023-02-19T10:28:29;102212.88;;;10.31;100.00
62708;BME280;48769;51.624;5.886;2023-02-19T10:30:56;102219.97;;;10.29;100.00
62708;BME280;48769;51.624;5.886;2023-02-19T10:33:22;102232.50;;;10.21;100.00
62708;BME280;48769;51.624;5.886;2023-02-19T10:35:55;102240.25;;;10.28;100.00
62708;BME280;48769;51.624;5.886;2023-02-19T10:38:22;102232.44;;;10.24;100.00
62708;BME280;48769;51.624;5.886;2023-02-19T10:40:48;102234.53;;;10.44;100.00
62708;BME280;48769;51.624;5.886;2023-02-19T10:43:20;102232.56;;;10.50;100.00
62708;BME280;48769;51.624;5.886;2023-02-19T10:45:46;102230.13;;;10.43;100.00
62708;BME280;48769;51.624;5.886;2023-02-19T10:48:23;102234.38;;;10.48;100.00
62708;BME280;48769;51.624;5.886;2023-02-19T10:50:50;102240.25;;;10.60;100.00
62708;BME280;48769;51.624;5.886;2023-02-19T10:53:22;102245.06;;;10.75;100.00
62708;BME280;48769;51.624;5.886;2023-02-19T10:55:47;102245.53;;;10.89;100.00
62708;BME280;48769;51.624;5.886;2023-02-19T10:58:28;102262.56;;;11.09;100.00
62708;BME280;48769;51.624;5.886;2023-02-19T11:03:35;102257.00;;;11.98;100.00
62708;BME280;48769;51.624;5.886;2023-02-19T11:06:01;102260.03;;;11.87;100.00
62708;BME280;48769;51.624;5.886;2023-02-19T11:08:27;102251.00;;;11.66;100.00
62708;BME280;48769;51.624;5.886;2023-02-19T11:10:52;102244.66;;;11.43;100.00
62708;BME280;48769;51.624;5.886;2023-02-19T11:13:30;102257.50;;;11.56;100.00
62708;BME280;48769;51.624;5.886;2023-02-19T11:15:57;102243.22;;;11.61;100.00
62708;BME280;48769;51.624;5.886;2023-02-19T11:21:01;102236.97;;;11.64;100.00
62708;BME280;48769;51.624;5.886;2023-02-19T11:23:30;102233.97;;;11.48;100.00
62708;BME280;48769;51.624;5.886;2023-02-19T11:25:58;102231.34;;;11.46;100.00
62708;BME280;48769;51.624;5.886;2023-02-19T11:31:12;102233.66;;;11.03;100.00
62708;BME280;48769;51.624;5.886;2023-02-19T11:33:44;102235.53;;;10.99;100.00
62708;BME280;48769;51.624;5.886;2023-02-19T11:38:39;102214.91;;;10.82;100.00
62708;BME280;48769;51.624;5.886;2023-02-19T11:41:08;102219.59;;;10.72;100.00
62708;BME280;48769;51.624;5.886;2023-02-19T11:43:46;102230.25;;;10.69;100.00
62708;BME280;48769;51.624;5.886;2023-02-19T11:48:48;102237.41;;;10.95;100.00
62708;BME280;48769;51.624;5.886;2023-02-19T11:54:17;102239.19;;;11.50;100.00
62708;BME280;48769;51.624;5.886;2023-02-19T11:56:43;102243.03;;;11.66;100.00
62708;BME280;48769;51.624;5.886;2023-02-19T11:59:21;102242.47;;;11.58;100.00
62708;BME280;48769;51.624;5.886;2023-02-19T12:02:52;102248.78;;;11.54;100.00
62708;BME280;48769;51.624;5.886;2023-02-19T12:04:52;102244.75;;;11.14;100.00
62708;BME280;48769;51.624;5.886;2023-02-19T12:07:47;102244.03;;;11.09;100.00
62708;BME280;48769;51.624;5.886;2023-02-19T12:39:01;102242.00;;;11.45;100.00
62708;BME280;48769;51.624;5.886;2023-02-19T12:41:39;102243.47;;;11.54;100.00
62708;BME280;48769;51.624;5.886;2023-02-19T12:44:09;102230.34;;;11.51;100.00
62708;BME280;48769;51.624;5.886;2023-02-19T12:46:39;102231.53;;;11.40;100.00
62708;BME280;48769;51.624;5.886;2023-02-19T12:49:14;102235.84;;;11.44;100.00
62708;BME280;48769;51.624;5.886;2023-02-19T12:51:48;102230.25;;;11.54;100.00
62708;BME280;48769;51.624;5.886;2023-02-19T12:54:22;102221.59;;;11.49;100.00
62708;BME280;48769;51.624;5.886;2023-02-19T12:59:51;102247.94;;;11.78;100.00
62708;BME280;48769;51.624;5.886;2023-02-19T13:02:27;102258.25;;;11.61;100.00
62708;BME280;48769;51.624;5.886;2023-02-19T13:05:00;102260.66;;;11.40;100.00
62708;BME280;48769;51.624;5.886;2023-02-19T13:07:32;102260.53;;;11.17;100.00
62708;BME280;48769;51.624;5.886;2023-02-19T13:09:59;102257.38;;;11.04;100.00
62708;BME280;48769;51.624;5.886;2023-02-19T13:12:28;102265.66;;;10.93;100.00
62708;BME280;48769;51.624;5.886;2023-02-19T13:15:00;102266.41;;;10.98;100.00
62708;BME280;48769;51.624;5.886;2023-02-19T13:17:37;102264.13;;;11.42;100.00
62708;BME280;48769;51.624;5.886;2023-02-19T13:20:22;102266.06;;;11.64;100.00
62708;BME280;48769;51.624;5.886;2023-02-19T13:23:00;102271.28;;;11.67;100.00
62708;BME280;48769;51.624;5.886;2023-02-19T13:28:38;102268.28;;;11.76;100.00
62708;BME280;48769;51.624;5.886;2023-02-19T13:34:01;102278.56;;;11.32;100.00
62708;BME280;48769;51.624;5.886;2023-02-19T13:36:29;102279.03;;;11.17;100.00
62708;BME280;48769;51.624;5.886;2023-02-19T13:38:55;102289.28;;;10.99;100.00
62708;BME280;48769;51.624;5.886;2023-02-19T13:43:53;102299.19;;;10.91;100.00
62708;BME280;48769;51.624;5.886;2023-02-19T13:46:19;102300.13;;;10.90;100.00
62708;BME280;48769;51.624;5.886;2023-02-19T13:48:44;102302.84;;;10.87;100.00
62708;BME280;48769;51.624;5.886;2023-02-19T14:04:07;102314.03;;;10.66;100.00
62708;BME280;48769;51.624;5.886;2023-02-19T14:12:01;102306.94;;;10.68;100.00
62708;BME280;48769;51.624;5.886;2023-02-19T14:14:33;102307.19;;;10.59;100.00
62708;BME280;48769;51.624;5.886;2023-02-19T14:24:55;102339.59;;;10.33;100.00
62708;BME280;48769;51.624;5.886;2023-02-19T14:27:21;102335.53;;;10.19;100.00
62708;BME280;48769;51.624;5.886;2023-02-19T14:29:46;102338.94;;;10.23;100.00
62708;BME280;48769;51.624;5.886;2023-02-19T14:32:15;102338.31;;;10.15;100.00
62708;BME280;48769;51.624;5.886;2023-02-19T14:34:45;102338.38;;;10.12;100.00
62708;BME280;48769;51.624;5.886;2023-02-19T14:37:15;102352.38;;;10.14;100.00
62708;BME280;48769;51.624;5.886;2023-02-19T14:39:43;102353.47;;;10.06;100.00
62708;BME280;48769;51.624;5.886;2023-02-19T14:42:15;102351.75;;;10.04;100.00